EWG4FX EDDS-LHBP
Flight info
| Callsign | EWG4FX |
|---|---|
| Flight time | 1h 5m |
| Altitude | 33000 |
| Route | ABTA4B ABTAL L173 RIXED Y161 RIDAR Z98 MIQ L605 BIBAG Q104 AKIMA MAREG ANEXA ANEX2T |
| Aircraft | A320/M-SDE3FGHIRWY/2200 |
Departure
| Time | 2026-05-05 19:33 |
|---|---|
| Airport | Stuttgart Airport (EDDS) |
Arrival
| Time | 2026-05-05 20:38 |
|---|---|
| Airport | Budapest Liszt Ferenc International Airport (LHBP) |
| Time | Latitude | Longitude | Altitude | Speed | Heading |
|---|---|---|---|---|---|
| 2026-05-05 18:59 | 48.68894 | 9.19431 | 1286 ft | 0 kts | 343° |
| 2026-05-05 19:22 | 48.68889 | 9.19434 | 1289 ft | 4 kts | 343° |
| 2026-05-05 19:22 | 48.68863 | 9.19443 | 1289 ft | 4 kts | 353° |
| 2026-05-05 19:22 | 48.68836 | 9.19445 | 1288 ft | 4 kts | 11° |
| 2026-05-05 19:22 | 48.68814 | 9.19430 | 1287 ft | 3 kts | 66° |
| 2026-05-05 19:23 | 48.68811 | 9.19418 | 1290 ft | 0 kts | 72° |
| 2026-05-05 19:25 | 48.68823 | 9.19475 | 1285 ft | 14 kts | 73° |
| 2026-05-05 19:25 | 48.68849 | 9.19612 | 1290 ft | 13 kts | 74° |
| 2026-05-05 19:26 | 48.68871 | 9.19731 | 1286 ft | 11 kts | 74° |
| 2026-05-05 19:26 | 48.68888 | 9.19833 | 1285 ft | 9 kts | 89° |
| 2026-05-05 19:26 | 48.68846 | 9.19887 | 1286 ft | 8 kts | 153° |
| 2026-05-05 19:26 | 48.68832 | 9.19998 | 1289 ft | 14 kts | 78° |
| 2026-05-05 19:27 | 48.68860 | 9.20149 | 1285 ft | 16 kts | 74° |
| 2026-05-05 19:27 | 48.68891 | 9.20318 | 1288 ft | 17 kts | 74° |
| 2026-05-05 19:27 | 48.68925 | 9.20496 | 1286 ft | 18 kts | 73° |
| 2026-05-05 19:27 | 48.68962 | 9.20689 | 1290 ft | 20 kts | 74° |
| 2026-05-05 19:28 | 48.69002 | 9.20896 | 1286 ft | 21 kts | 74° |
| 2026-05-05 19:28 | 48.69044 | 9.21118 | 1285 ft | 23 kts | 74° |
| 2026-05-05 19:28 | 48.69089 | 9.21355 | 1285 ft | 24 kts | 74° |
| 2026-05-05 19:28 | 48.69137 | 9.21605 | 1289 ft | 25 kts | 73° |
| 2026-05-05 19:29 | 48.69187 | 9.21870 | 1285 ft | 27 kts | 74° |
| 2026-05-05 19:29 | 48.69239 | 9.22145 | 1289 ft | 28 kts | 74° |
| 2026-05-05 19:29 | 48.69292 | 9.22429 | 1285 ft | 29 kts | 74° |
| 2026-05-05 19:29 | 48.69348 | 9.22723 | 1285 ft | 29 kts | 74° |
| 2026-05-05 19:30 | 48.69409 | 9.23020 | 1290 ft | 30 kts | 73° |
| 2026-05-05 19:30 | 48.69467 | 9.23327 | 1287 ft | 30 kts | 75° |
| 2026-05-05 19:30 | 48.69519 | 9.23628 | 1286 ft | 21 kts | 75° |
| 2026-05-05 19:30 | 48.69559 | 9.23842 | 1288 ft | 22 kts | 74° |
| 2026-05-05 19:31 | 48.69603 | 9.24068 | 1288 ft | 20 kts | 73° |
| 2026-05-05 19:31 | 48.69582 | 9.24238 | 1286 ft | 18 kts | 120° |
| 2026-05-05 19:31 | 48.69472 | 9.24323 | 1289 ft | 19 kts | 174° |
| 2026-05-05 19:31 | 48.69373 | 9.24214 | 1285 ft | 19 kts | 250° |
| 2026-05-05 19:32 | 48.69318 | 9.23944 | 1287 ft | 54 kts | 253° |
| 2026-05-05 19:32 | 48.69134 | 9.22987 | 1289 ft | 133 kts | 253° |
| 2026-05-05 19:32 | 48.68824 | 9.21330 | 1287 ft | 189 kts | 254° |
| 2026-05-05 19:32 | 48.68446 | 9.19297 | 1591 ft | 205 kts | 249° |
| 2026-05-05 19:33 | 48.68042 | 9.17182 | 2087 ft | 213 kts | 253° |
| 2026-05-05 19:33 | 48.67611 | 9.14964 | 2605 ft | 228 kts | 253° |
| 2026-05-05 19:33 | 48.67140 | 9.12572 | 3127 ft | 245 kts | 253° |
| 2026-05-05 19:33 | 48.66455 | 9.10205 | 3623 ft | 250 kts | 231° |
| 2026-05-05 19:34 | 48.65007 | 9.08783 | 4140 ft | 257 kts | 196° |
| 2026-05-05 19:34 | 48.63212 | 9.08948 | 4655 ft | 268 kts | 162° |
| 2026-05-05 19:34 | 48.61676 | 9.10586 | 5162 ft | 280 kts | 131° |
| 2026-05-05 19:35 | 48.61141 | 9.16388 | 6187 ft | 297 kts | 79° |
| 2026-05-05 19:35 | 48.61490 | 9.19473 | 6674 ft | 299 kts | 83° |
| 2026-05-05 19:35 | 48.61726 | 9.22610 | 7165 ft | 302 kts | 86° |
| 2026-05-05 19:35 | 48.62006 | 9.25774 | 7666 ft | 305 kts | 78° |
| 2026-05-05 19:36 | 48.62682 | 9.28823 | 8172 ft | 308 kts | 68° |
| 2026-05-05 19:36 | 48.63513 | 9.31821 | 8693 ft | 310 kts | 67° |
| 2026-05-05 19:36 | 48.64359 | 9.34840 | 9214 ft | 313 kts | 67° |
| 2026-05-05 19:36 | 48.65219 | 9.37884 | 9740 ft | 316 kts | 67° |
| 2026-05-05 19:37 | 48.66089 | 9.40953 | 10220 ft | 321 kts | 67° |
| 2026-05-05 19:37 | 48.66986 | 9.44124 | 10716 ft | 335 kts | 68° |
| 2026-05-05 19:37 | 48.67917 | 9.47429 | 11219 ft | 349 kts | 68° |
| 2026-05-05 19:37 | 48.68884 | 9.50869 | 11727 ft | 361 kts | 68° |
| 2026-05-05 19:38 | 48.69885 | 9.54424 | 12256 ft | 373 kts | 68° |
| 2026-05-05 19:38 | 48.70913 | 9.58084 | 12763 ft | 382 kts | 68° |
| 2026-05-05 19:38 | 48.71963 | 9.61841 | 13299 ft | 392 kts | 68° |
| 2026-05-05 19:38 | 48.73035 | 9.65686 | 13822 ft | 400 kts | 68° |
| 2026-05-05 19:39 | 48.74124 | 9.69604 | 14301 ft | 408 kts | 68° |
| 2026-05-05 19:39 | 48.75231 | 9.73590 | 14787 ft | 414 kts | 68° |
| 2026-05-05 19:39 | 48.76357 | 9.77639 | 15275 ft | 419 kts | 68° |
| 2026-05-05 19:39 | 48.77495 | 9.81736 | 15785 ft | 424 kts | 68° |
| 2026-05-05 19:40 | 48.78641 | 9.85884 | 16294 ft | 428 kts | 68° |
| 2026-05-05 19:40 | 48.79790 | 9.90058 | 16815 ft | 431 kts | 68° |
| 2026-05-05 19:40 | 48.80946 | 9.94260 | 17342 ft | 434 kts | 68° |
| 2026-05-05 19:40 | 48.82116 | 9.98513 | 17884 ft | 436 kts | 69° |
| 2026-05-05 19:41 | 48.83287 | 10.02771 | 18387 ft | 439 kts | 69° |
| 2026-05-05 19:41 | 48.84361 | 10.07098 | 18847 ft | 439 kts | 76° |
| 2026-05-05 19:41 | 48.84946 | 10.11632 | 19344 ft | 438 kts | 86° |
| 2026-05-05 19:41 | 48.84993 | 10.16242 | 19839 ft | 436 kts | 96° |
| 2026-05-05 19:42 | 48.84648 | 10.20809 | 20339 ft | 436 kts | 99° |
| 2026-05-05 19:42 | 48.84276 | 10.25406 | 20846 ft | 437 kts | 99° |
| 2026-05-05 19:42 | 48.83907 | 10.29981 | 21360 ft | 437 kts | 99° |
| 2026-05-05 19:42 | 48.83534 | 10.34553 | 21893 ft | 437 kts | 100° |
| 2026-05-05 19:43 | 48.82842 | 10.39005 | 22417 ft | 433 kts | 111° |
| 2026-05-05 19:43 | 48.81595 | 10.43141 | 22964 ft | 429 kts | 122° |
| 2026-05-05 19:43 | 48.79866 | 10.46795 | 23498 ft | 425 kts | 133° |
| 2026-05-05 19:43 | 48.77841 | 10.50048 | 23969 ft | 423 kts | 135° |
| 2026-05-05 19:44 | 48.75811 | 10.53274 | 24430 ft | 422 kts | 136° |
| 2026-05-05 19:44 | 48.73793 | 10.56491 | 24909 ft | 421 kts | 136° |
| 2026-05-05 19:44 | 48.71778 | 10.59716 | 25397 ft | 420 kts | 136° |
| 2026-05-05 19:44 | 48.69771 | 10.62924 | 25890 ft | 419 kts | 136° |
| 2026-05-05 19:45 | 48.67778 | 10.66108 | 26392 ft | 417 kts | 136° |
| 2026-05-05 19:45 | 48.65781 | 10.69290 | 26905 ft | 415 kts | 136° |
| 2026-05-05 19:45 | 48.63796 | 10.72444 | 27427 ft | 414 kts | 137° |
| 2026-05-05 19:45 | 48.61886 | 10.75689 | 27958 ft | 414 kts | 130° |
| 2026-05-05 19:46 | 48.60342 | 10.79381 | 28504 ft | 416 kts | 120° |
| 2026-05-05 19:46 | 48.59263 | 10.83436 | 29064 ft | 419 kts | 110° |
| 2026-05-05 19:46 | 48.58681 | 10.87758 | 29629 ft | 422 kts | 100° |
| 2026-05-05 19:46 | 48.58526 | 10.92189 | 30152 ft | 421 kts | 96° |
| 2026-05-05 19:47 | 48.58413 | 10.96591 | 30635 ft | 418 kts | 97° |
| 2026-05-05 19:47 | 48.58294 | 11.00956 | 30992 ft | 419 kts | 97° |
| 2026-05-05 19:47 | 48.58165 | 11.05369 | 31221 ft | 422 kts | 97° |
| 2026-05-05 19:47 | 48.58032 | 11.09816 | 31477 ft | 425 kts | 97° |
| 2026-05-05 19:48 | 48.57901 | 11.14292 | 31726 ft | 429 kts | 97° |
| 2026-05-05 19:48 | 48.57793 | 11.18821 | 31982 ft | 432 kts | 96° |
| 2026-05-05 19:48 | 48.57708 | 11.23371 | 32236 ft | 435 kts | 96° |
| 2026-05-05 19:48 | 48.57634 | 11.27960 | 32498 ft | 439 kts | 96° |
| 2026-05-05 19:49 | 48.57561 | 11.32565 | 32746 ft | 442 kts | 96° |
| 2026-05-05 19:49 | 48.57388 | 11.41996 | 32837 ft | 457 kts | 96° |
| 2026-05-05 19:50 | 48.57181 | 11.51753 | 32840 ft | 472 kts | 96° |
| 2026-05-05 19:50 | 48.56721 | 11.61727 | 32835 ft | 479 kts | 106° |
| 2026-05-05 19:51 | 48.55301 | 11.71623 | 32836 ft | 484 kts | 107° |
| 2026-05-05 19:51 | 48.53856 | 11.81491 | 32836 ft | 485 kts | 107° |
| 2026-05-05 19:52 | 48.52380 | 11.91498 | 32837 ft | 486 kts | 108° |
| 2026-05-05 19:52 | 48.50916 | 12.01382 | 32834 ft | 486 kts | 108° |
| 2026-05-05 19:53 | 48.49425 | 12.11381 | 32824 ft | 486 kts | 108° |
| 2026-05-05 19:53 | 48.47934 | 12.21326 | 32820 ft | 486 kts | 108° |
| 2026-05-05 19:54 | 48.46441 | 12.31191 | 32815 ft | 486 kts | 108° |
| 2026-05-05 19:54 | 48.44924 | 12.41107 | 32808 ft | 486 kts | 108° |
| 2026-05-05 19:55 | 48.43399 | 12.51032 | 32797 ft | 486 kts | 108° |
| 2026-05-05 19:55 | 48.41882 | 12.60946 | 32791 ft | 486 kts | 108° |
| 2026-05-05 19:56 | 48.40340 | 12.70917 | 32796 ft | 486 kts | 107° |
| 2026-05-05 19:56 | 48.39883 | 12.81093 | 32801 ft | 496 kts | 91° |
| 2026-05-05 19:57 | 48.40209 | 12.91477 | 32797 ft | 497 kts | 91° |
| 2026-05-05 19:57 | 48.40516 | 13.01850 | 32802 ft | 496 kts | 91° |
| 2026-05-05 19:58 | 48.40805 | 13.12305 | 32803 ft | 496 kts | 91° |
| 2026-05-05 19:58 | 48.41090 | 13.22664 | 32802 ft | 496 kts | 91° |
| 2026-05-05 19:59 | 48.41228 | 13.32952 | 32797 ft | 492 kts | 97° |
| 2026-05-05 19:59 | 48.40759 | 13.43278 | 32796 ft | 491 kts | 97° |
| 2026-05-05 20:00 | 48.40282 | 13.53440 | 32797 ft | 490 kts | 97° |
| 2026-05-05 20:00 | 48.39798 | 13.63669 | 32789 ft | 490 kts | 97° |
| 2026-05-05 20:01 | 48.39305 | 13.73910 | 32793 ft | 490 kts | 97° |
| 2026-05-05 20:01 | 48.38805 | 13.84131 | 32792 ft | 490 kts | 97° |
| 2026-05-05 20:02 | 48.38293 | 13.94356 | 32789 ft | 490 kts | 97° |
| 2026-05-05 20:02 | 48.37782 | 14.04576 | 32792 ft | 490 kts | 97° |
| 2026-05-05 20:03 | 48.37255 | 14.14779 | 32808 ft | 490 kts | 97° |
| 2026-05-05 20:03 | 48.36713 | 14.24997 | 32813 ft | 489 kts | 97° |
| 2026-05-05 20:04 | 48.36168 | 14.35191 | 32811 ft | 489 kts | 96° |
| 2026-05-05 20:04 | 48.35622 | 14.45361 | 32805 ft | 488 kts | 97° |
| 2026-05-05 20:05 | 48.35063 | 14.55543 | 32793 ft | 488 kts | 97° |
| 2026-05-05 20:05 | 48.34493 | 14.65703 | 32782 ft | 488 kts | 97° |
| 2026-05-05 20:06 | 48.34004 | 14.74220 | 32775 ft | 488 kts | 97° |
| 2026-05-05 20:06 | 48.33413 | 14.84372 | 32768 ft | 488 kts | 97° |
| 2026-05-05 20:07 | 48.32816 | 14.94520 | 32769 ft | 488 kts | 97° |
| 2026-05-05 20:07 | 48.32213 | 15.04693 | 32767 ft | 488 kts | 97° |
| 2026-05-05 20:08 | 48.31602 | 15.14833 | 32764 ft | 488 kts | 97° |
| 2026-05-05 20:08 | 48.30975 | 15.24973 | 32753 ft | 487 kts | 97° |
| 2026-05-05 20:09 | 48.30345 | 15.35105 | 32748 ft | 487 kts | 97° |
| 2026-05-05 20:09 | 48.29711 | 15.45241 | 32746 ft | 487 kts | 97° |
| 2026-05-05 20:10 | 48.29071 | 15.55288 | 32747 ft | 486 kts | 97° |
| 2026-05-05 20:10 | 48.28410 | 15.65455 | 32745 ft | 486 kts | 97° |
| 2026-05-05 20:11 | 48.27744 | 15.75551 | 32739 ft | 486 kts | 97° |
| 2026-05-05 20:11 | 48.27071 | 15.85636 | 32742 ft | 486 kts | 97° |
| 2026-05-05 20:12 | 48.26390 | 15.95660 | 32744 ft | 485 kts | 97° |
| 2026-05-05 20:12 | 48.25694 | 16.05797 | 32753 ft | 485 kts | 97° |
| 2026-05-05 20:13 | 48.25001 | 16.15849 | 32758 ft | 485 kts | 97° |
| 2026-05-05 20:13 | 48.24302 | 16.25852 | 32772 ft | 485 kts | 97° |
| 2026-05-05 20:14 | 48.23586 | 16.35905 | 32779 ft | 485 kts | 97° |
| 2026-05-05 20:14 | 48.22861 | 16.45965 | 32784 ft | 484 kts | 98° |
| 2026-05-05 20:15 | 48.22126 | 16.56008 | 32786 ft | 484 kts | 98° |
| 2026-05-05 20:15 | 48.21389 | 16.66028 | 32778 ft | 484 kts | 98° |
| 2026-05-05 20:16 | 48.20637 | 16.76046 | 32770 ft | 484 kts | 98° |
| 2026-05-05 20:16 | 48.19875 | 16.86070 | 32525 ft | 485 kts | 98° |
| 2026-05-05 20:16 | 48.19492 | 16.91067 | 32013 ft | 480 kts | 98° |
| 2026-05-05 20:17 | 48.19068 | 16.96006 | 31501 ft | 475 kts | 102° |
| 2026-05-05 20:17 | 48.18238 | 17.00743 | 31000 ft | 472 kts | 110° |
| 2026-05-05 20:17 | 48.17219 | 17.05477 | 30499 ft | 476 kts | 110° |
| 2026-05-05 20:17 | 48.16205 | 17.10187 | 30013 ft | 475 kts | 110° |
| 2026-05-05 20:18 | 48.15186 | 17.14916 | 29473 ft | 481 kts | 110° |
| 2026-05-05 20:18 | 48.14158 | 17.19682 | 28910 ft | 481 kts | 110° |
| 2026-05-05 20:18 | 48.13131 | 17.24445 | 28355 ft | 479 kts | 110° |
| 2026-05-05 20:18 | 48.12098 | 17.29215 | 27835 ft | 485 kts | 110° |
| 2026-05-05 20:19 | 48.11057 | 17.34019 | 27287 ft | 484 kts | 110° |
| 2026-05-05 20:19 | 48.10018 | 17.38803 | 26772 ft | 487 kts | 110° |
| 2026-05-05 20:19 | 48.08962 | 17.43643 | 26258 ft | 489 kts | 110° |
| 2026-05-05 20:19 | 48.07906 | 17.48471 | 25764 ft | 488 kts | 110° |
| 2026-05-05 20:20 | 48.06854 | 17.53278 | 25277 ft | 487 kts | 110° |
| 2026-05-05 20:20 | 48.05793 | 17.58121 | 24793 ft | 492 kts | 110° |
| 2026-05-05 20:20 | 48.04724 | 17.62985 | 24327 ft | 494 kts | 110° |
| 2026-05-05 20:20 | 48.03647 | 17.67876 | 23863 ft | 497 kts | 110° |
| 2026-05-05 20:21 | 48.02568 | 17.72763 | 23406 ft | 495 kts | 110° |
| 2026-05-05 20:21 | 48.01488 | 17.77630 | 22857 ft | 492 kts | 110° |
| 2026-05-05 20:21 | 48.00409 | 17.82478 | 22341 ft | 489 kts | 110° |
| 2026-05-05 20:21 | 47.99343 | 17.87263 | 21806 ft | 485 kts | 110° |
| 2026-05-05 20:22 | 47.98280 | 17.92020 | 21294 ft | 481 kts | 110° |
| 2026-05-05 20:22 | 47.97226 | 17.96736 | 20789 ft | 477 kts | 110° |
| 2026-05-05 20:22 | 47.96180 | 18.01408 | 20286 ft | 472 kts | 110° |
| 2026-05-05 20:22 | 47.95151 | 18.05995 | 19800 ft | 461 kts | 110° |
| 2026-05-05 20:23 | 47.94151 | 18.10471 | 19316 ft | 450 kts | 110° |
| 2026-05-05 20:23 | 47.93167 | 18.14861 | 18849 ft | 441 kts | 110° |
| 2026-05-05 20:23 | 47.92208 | 18.19118 | 18372 ft | 423 kts | 111° |
| 2026-05-05 20:23 | 47.91296 | 18.23161 | 17881 ft | 402 kts | 111° |
| 2026-05-05 20:24 | 47.90421 | 18.27019 | 17352 ft | 384 kts | 111° |
| 2026-05-05 20:24 | 47.89577 | 18.30721 | 16837 ft | 369 kts | 111° |
| 2026-05-05 20:24 | 47.88761 | 18.34279 | 16330 ft | 356 kts | 112° |
| 2026-05-05 20:24 | 47.87973 | 18.37707 | 15820 ft | 347 kts | 112° |
| 2026-05-05 20:25 | 47.87093 | 18.41020 | 15329 ft | 339 kts | 121° |
| 2026-05-05 20:25 | 47.85829 | 18.43923 | 14845 ft | 330 kts | 133° |
| 2026-05-05 20:25 | 47.84240 | 18.46319 | 14365 ft | 322 kts | 144° |
| 2026-05-05 20:25 | 47.82427 | 18.48147 | 13895 ft | 310 kts | 155° |
| 2026-05-05 20:26 | 47.80476 | 18.49386 | 13392 ft | 299 kts | 165° |
| 2026-05-05 20:26 | 47.78484 | 18.50052 | 12879 ft | 290 kts | 174° |
| 2026-05-05 20:26 | 47.76513 | 18.50457 | 12349 ft | 283 kts | 174° |
| 2026-05-05 20:26 | 47.74579 | 18.50857 | 11846 ft | 277 kts | 174° |
| 2026-05-05 20:27 | 47.72693 | 18.51248 | 11351 ft | 271 kts | 174° |
| 2026-05-05 20:27 | 47.70841 | 18.51631 | 10855 ft | 265 kts | 175° |
| 2026-05-05 20:27 | 47.69039 | 18.52004 | 10374 ft | 259 kts | 175° |
| 2026-05-05 20:27 | 47.67267 | 18.52370 | 9893 ft | 255 kts | 175° |
| 2026-05-05 20:28 | 47.65528 | 18.52729 | 9397 ft | 251 kts | 175° |
| 2026-05-05 20:28 | 47.63811 | 18.53080 | 8968 ft | 248 kts | 175° |
| 2026-05-05 20:28 | 47.62116 | 18.53532 | 8581 ft | 247 kts | 168° |
| 2026-05-05 20:28 | 47.60516 | 18.54457 | 8200 ft | 250 kts | 153° |
| 2026-05-05 20:29 | 47.59252 | 18.56259 | 7811 ft | 259 kts | 128° |
| 2026-05-05 20:29 | 47.58642 | 18.58809 | 7447 ft | 271 kts | 104° |
| 2026-05-05 20:29 | 47.58366 | 18.61569 | 7082 ft | 269 kts | 108° |
| 2026-05-05 20:29 | 47.57980 | 18.64265 | 6715 ft | 266 kts | 110° |
| 2026-05-05 20:30 | 47.57551 | 18.66922 | 6356 ft | 264 kts | 111° |
| 2026-05-05 20:30 | 47.57120 | 18.69553 | 5982 ft | 262 kts | 110° |
| 2026-05-05 20:30 | 47.56698 | 18.72169 | 5642 ft | 259 kts | 110° |
| 2026-05-05 20:30 | 47.56297 | 18.74732 | 5367 ft | 253 kts | 110° |
| 2026-05-05 20:31 | 47.55914 | 18.77244 | 5100 ft | 249 kts | 109° |
| 2026-05-05 20:31 | 47.55538 | 18.79737 | 4842 ft | 246 kts | 109° |
| 2026-05-05 20:31 | 47.55168 | 18.82197 | 4553 ft | 244 kts | 109° |
| 2026-05-05 20:31 | 47.54811 | 18.84641 | 4278 ft | 244 kts | 106° |
| 2026-05-05 20:32 | 47.54808 | 18.87197 | 4057 ft | 256 kts | 85° |
| 2026-05-05 20:32 | 47.55415 | 18.89711 | 4015 ft | 265 kts | 63° |
| 2026-05-05 20:32 | 47.56590 | 18.91840 | 4018 ft | 270 kts | 45° |
| 2026-05-05 20:32 | 47.57801 | 18.93886 | 4008 ft | 256 kts | 64° |
| 2026-05-05 20:33 | 47.58392 | 18.96249 | 4012 ft | 236 kts | 86° |
| 2026-05-05 20:33 | 47.58382 | 18.98587 | 4054 ft | 221 kts | 107° |
| 2026-05-05 20:33 | 47.57883 | 19.00664 | 4026 ft | 210 kts | 127° |
| 2026-05-05 20:33 | 47.57019 | 19.02329 | 3922 ft | 202 kts | 139° |
| 2026-05-05 20:34 | 47.56078 | 19.03860 | 3698 ft | 201 kts | 139° |
| 2026-05-05 20:34 | 47.55139 | 19.05388 | 3445 ft | 201 kts | 139° |
| 2026-05-05 20:34 | 47.54201 | 19.06917 | 3189 ft | 198 kts | 139° |
| 2026-05-05 20:34 | 47.53291 | 19.08401 | 2929 ft | 193 kts | 140° |
| 2026-05-05 20:35 | 47.52393 | 19.09862 | 2686 ft | 190 kts | 140° |
| 2026-05-05 20:35 | 47.51513 | 19.11294 | 2433 ft | 185 kts | 140° |
| 2026-05-05 20:35 | 47.50658 | 19.12685 | 2192 ft | 181 kts | 140° |
| 2026-05-05 20:35 | 47.49830 | 19.14031 | 1942 ft | 173 kts | 140° |
| 2026-05-05 20:36 | 47.49028 | 19.15334 | 1722 ft | 169 kts | 140° |
| 2026-05-05 20:36 | 47.48237 | 19.16615 | 1491 ft | 168 kts | 138° |
| 2026-05-05 20:36 | 47.47484 | 19.17839 | 1265 ft | 154 kts | 136° |
| 2026-05-05 20:36 | 47.46790 | 19.18965 | 1050 ft | 148 kts | 136° |
| 2026-05-05 20:37 | 47.46091 | 19.20097 | 839 ft | 146 kts | 135° |
| 2026-05-05 20:37 | 47.45638 | 19.20829 | 732 ft | 145 kts | 135° |
| 2026-05-05 20:37 | 47.44737 | 19.22288 | 473 ft | 142 kts | 136° |
| 2026-05-05 20:37 | 47.44115 | 19.23268 | 454 ft | 118 kts | 130° |
| 2026-05-05 20:38 | 47.43717 | 19.23937 | 454 ft | 67 kts | 134° |
| 2026-05-05 20:38 | 47.43465 | 19.24338 | 451 ft | 48 kts | 132° |
| 2026-05-05 20:38 | 47.43288 | 19.24624 | 454 ft | 31 kts | 132° |
| 2026-05-05 20:38 | 47.43151 | 19.24853 | 457 ft | 21 kts | 130° |
| 2026-05-05 20:39 | 47.43034 | 19.24944 | 458 ft | 19 kts | 192° |
| 2026-05-05 20:39 | 47.42934 | 19.24838 | 458 ft | 17 kts | 227° |
| 2026-05-05 20:39 | 47.42948 | 19.24671 | 457 ft | 19 kts | 296° |
| 2026-05-05 20:39 | 47.43007 | 19.24490 | 457 ft | 20 kts | 295° |
| 2026-05-05 20:40 | 47.43075 | 19.24295 | 456 ft | 22 kts | 297° |
| 2026-05-05 20:40 | 47.43143 | 19.24082 | 454 ft | 24 kts | 295° |
| 2026-05-05 20:40 | 47.43217 | 19.23860 | 456 ft | 24 kts | 296° |
| 2026-05-05 20:40 | 47.43291 | 19.23638 | 456 ft | 24 kts | 296° |
| 2026-05-05 20:41 | 47.43363 | 19.23425 | 456 ft | 22 kts | 296° |
| 2026-05-05 20:41 | 47.43427 | 19.23232 | 457 ft | 19 kts | 296° |
| 2026-05-05 20:41 | 47.43520 | 19.23089 | 457 ft | 20 kts | 323° |
| 2026-05-05 20:41 | 47.43635 | 19.22961 | 457 ft | 21 kts | 323° |
| 2026-05-05 20:42 | 47.43753 | 19.22829 | 457 ft | 21 kts | 322° |
| 2026-05-05 20:42 | 47.43852 | 19.22721 | 457 ft | 16 kts | 323° |
| 2026-05-05 20:42 | 47.43936 | 19.22651 | 457 ft | 13 kts | 359° |
| 2026-05-05 20:42 | 47.44017 | 19.22684 | 457 ft | 12 kts | 15° |
| 2026-05-05 20:43 | 47.44088 | 19.22655 | 457 ft | 11 kts | 333° |
| 2026-05-05 20:43 | 47.44168 | 19.22596 | 457 ft | 13 kts | 333° |
| 2026-05-05 20:43 | 47.44250 | 19.22536 | 457 ft | 13 kts | 333° |
| 2026-05-05 20:43 | 47.44329 | 19.22479 | 456 ft | 13 kts | 334° |
| 2026-05-05 20:44 | 47.44404 | 19.22425 | 457 ft | 12 kts | 334° |
| 2026-05-05 20:44 | 47.44472 | 19.22353 | 456 ft | 12 kts | 292° |
| 2026-05-05 20:44 | 47.44500 | 19.22240 | 457 ft | 13 kts | 313° |
| 2026-05-05 20:44 | 47.44559 | 19.22172 | 457 ft | 12 kts | 322° |
| 2026-05-05 20:45 | 47.44702 | 19.22011 | 457 ft | 15 kts | 325° |
| 2026-05-05 20:45 | 47.44800 | 19.22010 | 458 ft | 16 kts | 35° |
| 2026-05-05 20:45 | 47.44819 | 19.22151 | 457 ft | 16 kts | 114° |
| 2026-05-05 20:46 | 47.44734 | 19.22299 | 454 ft | 21 kts | 132° |
| 2026-05-05 20:46 | 47.44629 | 19.22467 | 451 ft | 23 kts | 134° |
| 2026-05-05 20:46 | 47.44535 | 19.22546 | 451 ft | 13 kts | 209° |
| 2026-05-05 20:46 | 47.44500 | 19.22433 | 455 ft | 12 kts | 252° |
| 2026-05-05 20:47 | 47.44433 | 19.22393 | 457 ft | 11 kts | 192° |
| 2026-05-05 20:47 | 47.44413 | 19.22333 | 457 ft | 0 kts | 284° |
| 2026-05-05 20:48 | 47.43238 | 19.25780 | 456 ft | 0 kts | 39° |